LFQQ 301030Z AUTO 09008KT 060V130 CAVOK 23/04 Q1022 NOSIG

ElémentsDécodage
LFQQ Station météo située sur l'aérodrome de LILLE Lesquin
301030Z émis le 30 du mois à 10h30 UTC
AUTO Bulletin édité par un automate
09008KT vent du 090°, 08 noeuds
060V130 vent de direction variable entre 060° et 130°
CAVOK Ceiling And Visibility OK
- Visibilité de 10 Km ou plus
- Pas de nuage au-dessous de 1500m ou au-dessous de l'altitude minimale du secteur la plus élevée (si>1500m) et absence de CB
- pas de temps présent significatif
23/04 température 23°C, point de rosée 04°C
 soit une humidité relative de 29%
Q1022 la pression au niveau de la mer (QNH) est de 1022 hPa
NOSIG Pas de changement significatif prévu au cours des deux heures suivant l'heure de l'observation